createdAt,value
2018-07-03T00:00:24.033Z,17.78
2018-07-03T00:01:32.064Z,17.78
2018-07-03T00:02:40.183Z,17.79
2018-07-03T00:03:48.246Z,17.76
2018-07-03T00:04:56.284Z,17.72
2018-07-03T00:06:04.353Z,17.71
2018-07-03T00:07:12.407Z,17.68
2018-07-03T00:08:20.500Z,17.71
2018-07-03T00:09:28.629Z,17.73
2018-07-03T00:10:36.631Z,17.75
2018-07-03T00:11:44.701Z,17.84
2018-07-03T00:12:52.786Z,17.95
2018-07-03T00:14:00.857Z,17.98
2018-07-03T00:15:08.922Z,17.95
2018-07-03T00:16:16.975Z,17.94
2018-07-03T00:17:25.069Z,17.97
2018-07-03T00:18:33.145Z,17.98
2018-07-03T00:19:41.190Z,17.97
2018-07-03T00:20:49.249Z,17.97
2018-07-03T00:21:57.362Z,17.88
2018-07-03T00:23:05.395Z,17.87
2018-07-03T00:24:13.464Z,17.82
2018-07-03T00:25:21.524Z,17.82
2018-07-03T00:26:29.591Z,17.80
2018-07-03T00:27:37.655Z,17.80
2018-07-03T00:28:45.707Z,17.76
2018-07-03T00:29:53.788Z,17.80
2018-07-03T00:31:01.844Z,17.73
2018-07-03T00:32:09.949Z,17.72
2018-07-03T00:33:17.983Z,17.66
2018-07-03T00:34:26.073Z,17.56
2018-07-03T00:35:34.129Z,17.56
2018-07-03T00:36:42.203Z,17.56
2018-07-03T00:37:50.271Z,17.54
2018-07-03T00:38:58.358Z,17.49
2018-07-03T00:40:06.392Z,17.53
2018-07-03T00:41:14.472Z,17.46
2018-07-03T00:42:22.526Z,17.38
2018-07-03T00:43:30.599Z,17.37
2018-07-03T00:44:38.681Z,17.28
2018-07-03T00:45:46.720Z,17.22
2018-07-03T00:46:54.809Z,17.19
2018-07-03T00:48:02.998Z,17.14
2018-07-03T00:49:10.941Z,17.04
2018-07-03T00:50:19.037Z,16.98
2018-07-03T00:51:27.058Z,16.99
2018-07-03T00:52:35.178Z,16.91
2018-07-03T00:53:43.210Z,16.84
2018-07-03T00:54:51.281Z,16.82
2018-07-03T00:55:59.335Z,16.86
2018-07-03T00:57:07.394Z,16.83
2018-07-03T00:58:15.472Z,16.69
2018-07-03T00:59:23.536Z,16.72
2018-07-03T01:00:31.608Z,16.62
2018-07-03T01:01:39.706Z,16.65
2018-07-03T01:02:47.753Z,16.58
2018-07-03T01:03:55.809Z,16.54
2018-07-03T01:05:03.876Z,16.43
2018-07-03T01:06:11.958Z,16.40
2018-07-03T01:07:20.014Z,16.44
2018-07-03T01:08:28.070Z,16.36
2018-07-03T01:09:36.167Z,16.26
2018-07-03T01:10:44.254Z,16.18
2018-07-03T01:11:52.263Z,16.17
2018-07-03T01:13:00.331Z,16.08
2018-07-03T01:14:08.409Z,16.05
2018-07-03T01:15:16.473Z,16.10
2018-07-03T01:16:24.551Z,16.10
2018-07-03T01:17:32.658Z,15.92
2018-07-03T01:18:40.681Z,15.94
2018-07-03T01:19:48.758Z,15.91
2018-07-03T01:20:56.840Z,15.94
2018-07-03T01:22:04.903Z,15.96
2018-07-03T01:23:12.970Z,15.91
2018-07-03T01:24:21.038Z,15.83
2018-07-03T01:25:29.080Z,15.88
2018-07-03T01:26:37.186Z,15.81
2018-07-03T01:27:45.242Z,15.76
2018-07-03T01:28:53.317Z,15.66
2018-07-03T01:30:01.399Z,15.66
2018-07-03T01:31:09.451Z,15.62
2018-07-03T01:32:17.522Z,15.51
2018-07-03T01:33:25.566Z,15.62
2018-07-03T01:34:33.641Z,15.62
2018-07-03T01:35:41.703Z,15.63
2018-07-03T01:36:49.782Z,15.60
2018-07-03T01:37:57.866Z,15.59
2018-07-03T01:39:05.956Z,15.52
2018-07-03T01:40:13.974Z,15.45
2018-07-03T01:41:22.047Z,15.51
2018-07-03T01:42:30.124Z,15.44
2018-07-03T01:43:38.190Z,15.50
2018-07-03T01:44:46.265Z,15.45
2018-07-03T01:45:54.330Z,15.45
2018-07-03T01:47:02.390Z,15.45
2018-07-03T01:48:10.469Z,15.48
2018-07-03T01:49:18.516Z,15.48
2018-07-03T01:50:26.595Z,15.30
2018-07-03T01:51:34.669Z,15.33
2018-07-03T01:52:42.719Z,15.33
2018-07-03T01:53:50.807Z,15.29
2018-07-03T01:54:58.856Z,15.29
2018-07-03T01:56:06.944Z,15.32
2018-07-03T01:57:15.002Z,15.29
2018-07-03T01:58:23.098Z,15.26
2018-07-03T01:59:31.147Z,15.29
2018-07-03T02:00:39.220Z,15.29
2018-07-03T02:01:47.286Z,15.26
2018-07-03T02:02:55.396Z,15.26
2018-07-03T02:04:03.426Z,15.29
2018-07-03T02:05:11.500Z,15.35
2018-07-03T02:06:19.559Z,15.29
2018-07-03T02:07:27.640Z,15.25
2018-07-03T02:08:35.691Z,15.25
2018-07-03T02:09:43.772Z,15.23
2018-07-03T02:10:51.811Z,15.18
2018-07-03T02:12:01.512Z,15.22
2018-07-03T02:13:11.585Z,15.17
2018-07-03T02:14:17.658Z,15.07
2018-07-03T02:15:25.692Z,15.08
2018-07-03T02:16:33.788Z,15.12
2018-07-03T02:17:41.848Z,15.17
2018-07-03T02:18:49.957Z,14.94
2018-07-03T02:19:57.969Z,14.97
2018-07-03T02:21:06.051Z,14.99
2018-07-03T02:22:14.096Z,15.02
2018-07-03T02:23:22.155Z,14.96
2018-07-03T02:24:30.250Z,15.00
2018-07-03T02:25:38.315Z,14.97
2018-07-03T02:26:46.374Z,14.93
2018-07-03T02:27:54.454Z,14.93
2018-07-03T02:29:02.493Z,14.94
2018-07-03T02:30:10.575Z,14.99
2018-07-03T02:31:18.630Z,14.96
2018-07-03T02:32:26.709Z,14.92
2018-07-03T02:33:34.776Z,14.96
2018-07-03T02:34:42.839Z,14.94
2018-07-03T02:35:50.882Z,14.87
2018-07-03T02:36:58.966Z,14.87
2018-07-03T02:38:07.048Z,14.94
2018-07-03T02:39:15.187Z,14.94
2018-07-03T02:40:23.194Z,14.94
2018-07-03T02:41:31.240Z,14.96
2018-07-03T02:42:39.291Z,14.90
2018-07-03T02:43:47.357Z,14.99
2018-07-03T02:44:55.434Z,15.11
2018-07-03T02:46:03.491Z,15.10
2018-07-03T02:47:11.580Z,15.17
2018-07-03T02:48:19.616Z,15.18
2018-07-03T02:49:27.706Z,15.18
2018-07-03T02:50:35.784Z,15.26
2018-07-03T02:51:43.854Z,15.18
2018-07-03T02:52:51.889Z,15.22
2018-07-03T02:53:59.966Z,15.17
2018-07-03T02:55:08.046Z,15.23
2018-07-03T02:56:16.104Z,15.22
2018-07-03T02:57:24.193Z,15.23
2018-07-03T02:58:32.225Z,15.27
2018-07-03T02:59:40.333Z,15.25
2018-07-03T03:00:48.378Z,15.19
2018-07-03T03:01:56.446Z,15.18
2018-07-03T03:03:04.516Z,15.23
2018-07-03T03:04:12.567Z,15.17
2018-07-03T03:05:20.649Z,15.15
2018-07-03T03:06:28.724Z,15.15
2018-07-03T03:07:36.790Z,15.14
2018-07-03T03:08:44.835Z,15.07
2018-07-03T03:09:52.923Z,15.08
2018-07-03T03:11:00.968Z,15.08
2018-07-03T03:12:09.059Z,15.07
2018-07-03T03:13:17.176Z,15.00
2018-07-03T03:14:25.212Z,15.11
2018-07-03T03:15:33.257Z,14.99
2018-07-03T03:16:41.340Z,14.96
2018-07-03T03:17:49.414Z,14.99
2018-07-03T03:18:57.473Z,14.99
2018-07-03T03:20:05.553Z,15.02
2018-07-03T03:21:13.612Z,14.94
2018-07-03T03:22:21.694Z,14.97
2018-07-03T03:23:29.767Z,14.93
2018-07-03T03:24:37.833Z,14.90
2018-07-03T03:25:45.893Z,14.89
2018-07-03T03:26:53.969Z,14.82
2018-07-03T03:28:02.003Z,14.82
2018-07-03T03:29:10.095Z,14.90
2018-07-03T03:30:18.189Z,14.99
2018-07-03T03:31:26.245Z,14.99
2018-07-03T03:32:34.304Z,14.99
2018-07-03T03:33:42.366Z,14.96
2018-07-03T03:34:50.448Z,14.97
2018-07-03T03:35:58.536Z,15.07
2018-07-03T03:37:06.616Z,15.07
2018-07-03T03:38:14.676Z,15.12
2018-07-03T03:39:22.703Z,15.08
2018-07-03T03:40:30.793Z,15.11
2018-07-03T03:41:38.887Z,15.18
2018-07-03T03:42:46.896Z,15.17
2018-07-03T03:43:55.011Z,15.22
2018-07-03T03:45:03.039Z,15.30
2018-07-03T03:46:11.116Z,15.32
2018-07-03T03:47:19.188Z,15.36
2018-07-03T03:48:27.260Z,15.37
2018-07-03T03:49:35.322Z,15.35
2018-07-03T03:50:43.379Z,15.43
2018-07-03T03:51:51.467Z,15.44
2018-07-03T03:52:59.510Z,15.44
2018-07-03T03:54:07.578Z,15.51
2018-07-03T03:55:15.677Z,15.50
2018-07-03T03:56:23.721Z,15.54
2018-07-03T03:57:31.818Z,15.55
2018-07-03T03:58:39.858Z,15.59
2018-07-03T03:59:47.930Z,15.63
2018-07-03T04:00:56.016Z,15.67
2018-07-03T04:02:04.061Z,15.73
2018-07-03T04:03:12.107Z,15.75
2018-07-03T04:04:20.218Z,15.72
2018-07-03T04:05:28.272Z,15.88
2018-07-03T04:06:36.366Z,15.85
2018-07-03T04:07:44.443Z,15.76
2018-07-03T04:08:52.461Z,15.85
2018-07-03T04:10:00.548Z,15.85
2018-07-03T04:11:09.225Z,15.88
2018-07-03T04:12:16.669Z,15.84
2018-07-03T04:13:24.762Z,15.92
2018-07-03T04:14:32.812Z,15.91
2018-07-03T04:15:40.877Z,15.90
2018-07-03T04:16:48.941Z,15.91
2018-07-03T04:17:57.444Z,15.98
2018-07-03T04:19:05.100Z,15.94
2018-07-03T04:20:13.149Z,15.94
2018-07-03T04:21:21.204Z,16.06
2018-07-03T04:22:29.303Z,16.09
2018-07-03T04:23:37.371Z,16.17
2018-07-03T04:24:45.415Z,16.22
2018-07-03T04:25:53.477Z,16.34
2018-07-03T04:27:01.550Z,16.34
2018-07-03T04:28:09.617Z,16.32
2018-07-03T04:29:17.677Z,16.40
2018-07-03T04:30:26.025Z,16.39
2018-07-03T04:31:33.800Z,16.44
2018-07-03T04:32:41.867Z,16.46
2018-07-03T04:33:50.015Z,16.51
2018-07-03T04:34:58.033Z,16.58
2018-07-03T04:36:06.105Z,16.51
2018-07-03T04:37:14.737Z,16.59
2018-07-03T04:38:22.184Z,16.54
2018-07-03T04:39:30.327Z,16.57
2018-07-03T04:40:38.353Z,16.64
2018-07-03T04:41:46.436Z,16.61
2018-07-03T04:42:54.501Z,16.69
2018-07-03T04:44:02.627Z,16.73
2018-07-03T04:45:10.644Z,16.76
2018-07-03T04:46:18.845Z,16.80
2018-07-03T04:47:26.940Z,16.80
2018-07-03T04:48:35.070Z,16.87
2018-07-03T04:49:42.893Z,16.89
2018-07-03T04:50:50.975Z,16.76
2018-07-03T04:51:59.039Z,16.94
2018-07-03T04:53:07.136Z,16.91
2018-07-03T04:54:15.166Z,16.89
2018-07-03T04:55:23.416Z,16.95
2018-07-03T04:56:31.321Z,17.07
2018-07-03T04:57:39.393Z,16.97
2018-07-03T04:58:47.522Z,16.99
2018-07-03T04:59:55.503Z,17.02
2018-07-03T05:01:03.590Z,16.99
2018-07-03T05:02:11.675Z,17.01
2018-07-03T05:03:19.730Z,17.04
2018-07-03T05:04:27.796Z,17.01
2018-07-03T05:05:35.845Z,16.98
2018-07-03T05:06:43.946Z,16.97
2018-07-03T05:07:51.969Z,17.02
2018-07-03T05:09:00.522Z,16.97
2018-07-03T05:10:08.158Z,16.92
2018-07-03T05:11:16.234Z,16.98
2018-07-03T05:12:24.270Z,17.02
2018-07-03T05:13:32.323Z,17.12
2018-07-03T05:14:40.411Z,17.02
2018-07-03T05:15:48.479Z,17.19
2018-07-03T05:16:56.553Z,17.14
2018-07-03T05:18:04.803Z,17.12
2018-07-03T05:19:12.680Z,17.19
2018-07-03T05:20:20.772Z,17.12
2018-07-03T05:21:28.854Z,17.19
2018-07-03T05:22:36.917Z,17.23
2018-07-03T05:23:45.514Z,17.30
2018-07-03T05:24:53.036Z,17.27
2018-07-03T05:26:01.137Z,17.38
2018-07-03T05:27:09.178Z,17.37
2018-07-03T05:28:17.294Z,17.41
2018-07-03T05:29:25.280Z,17.52
2018-07-03T05:30:33.386Z,17.63
2018-07-03T05:31:41.447Z,17.56
2018-07-03T05:32:49.502Z,17.69
2018-07-03T05:33:57.543Z,17.82
2018-07-03T05:35:05.622Z,17.97
2018-07-03T05:36:13.701Z,18.02
2018-07-03T05:37:21.743Z,18.08
2018-07-03T05:38:29.838Z,18.21
2018-07-03T05:39:37.939Z,18.33
2018-07-03T05:40:45.972Z,18.46
2018-07-03T05:41:54.062Z,18.51
2018-07-03T05:43:02.102Z,18.53
2018-07-03T05:44:10.189Z,18.68
2018-07-03T05:45:18.242Z,18.76
2018-07-03T05:46:26.307Z,18.78
2018-07-03T05:47:34.388Z,18.91
2018-07-03T05:48:42.438Z,18.94
2018-07-03T05:49:50.512Z,19.11
2018-07-03T05:50:58.609Z,19.15
2018-07-03T05:52:06.708Z,19.12
2018-07-03T05:53:14.734Z,19.24
2018-07-03T05:54:22.822Z,19.37
2018-07-03T05:56:48.030Z,19.49
2018-07-03T05:57:56.130Z,19.52
2018-07-03T05:59:04.194Z,19.53
2018-07-03T06:00:12.229Z,19.71
2018-07-03T06:01:20.311Z,19.72
2018-07-03T06:02:28.370Z,19.89
2018-07-03T06:03:37.514Z,19.99
2018-07-03T06:04:45.944Z,20.10
2018-07-03T06:05:52.559Z,20.11
2018-07-03T06:07:03.877Z,20.18
2018-07-03T06:08:11.347Z,20.15
2018-07-03T06:09:19.450Z,20.39
2018-07-03T06:10:27.474Z,20.49
2018-07-03T06:11:35.578Z,20.52
2018-07-03T06:12:43.634Z,20.52
2018-07-03T06:13:51.678Z,20.52
2018-07-03T06:14:59.848Z,20.55
2018-07-03T06:16:07.869Z,20.55
2018-07-03T06:17:15.910Z,20.68
2018-07-03T06:18:23.965Z,20.75
2018-07-03T06:19:32.019Z,20.82
2018-07-03T06:20:40.139Z,20.88
2018-07-03T06:21:48.191Z,20.96
2018-07-03T06:22:56.277Z,20.92
2018-07-03T06:24:04.342Z,21.00
2018-07-03T06:25:12.400Z,21.05
2018-07-03T06:26:20.484Z,21.10
2018-07-03T06:27:28.543Z,21.05
2018-07-03T06:28:36.640Z,21.19
2018-07-03T06:29:44.677Z,21.19
2018-07-03T06:30:52.746Z,21.20
2018-07-03T06:32:00.819Z,21.30
2018-07-03T06:33:11.722Z,21.29
2018-07-03T06:34:22.625Z,21.25
2018-07-03T06:35:27.683Z,21.26
2018-07-03T06:36:35.732Z,21.32
2018-07-03T06:37:43.810Z,21.47
2018-07-03T06:38:51.894Z,21.51
2018-07-03T06:39:59.948Z,21.56
2018-07-03T06:41:08.009Z,21.56
2018-07-03T06:42:16.244Z,21.63
2018-07-03T06:43:24.142Z,21.51
2018-07-03T06:44:32.224Z,21.56
2018-07-03T06:45:40.286Z,21.48
2018-07-03T06:46:48.357Z,21.50
2018-07-03T06:47:56.422Z,21.47
2018-07-03T06:49:04.514Z,21.50
2018-07-03T06:50:12.552Z,21.58
2018-07-03T06:51:20.656Z,21.53
2018-07-03T06:52:28.712Z,21.66
2018-07-03T06:53:36.802Z,21.70
2018-07-03T06:54:44.899Z,21.68
2018-07-03T06:55:52.951Z,21.74
2018-07-03T06:57:00.998Z,21.91
2018-07-03T06:58:13.336Z,21.97
2018-07-03T06:59:21.370Z,22.19
2018-07-03T07:00:29.460Z,22.31
2018-07-03T07:01:37.528Z,22.51
2018-07-03T07:02:45.612Z,22.76
2018-07-03T07:03:53.659Z,22.80
2018-07-03T07:05:01.732Z,22.84
2018-07-03T07:06:09.802Z,22.92
2018-07-03T07:07:17.885Z,23.01
2018-07-03T07:08:25.963Z,23.13
2018-07-03T07:09:34.139Z,23.18
2018-07-03T07:10:42.104Z,23.25
2018-07-03T07:11:50.190Z,23.29
2018-07-03T07:12:58.245Z,23.39
2018-07-03T07:14:06.324Z,23.55
2018-07-03T07:15:14.405Z,23.86
2018-07-03T07:16:22.445Z,23.89
2018-07-03T07:17:30.552Z,24.50
2018-07-03T07:18:38.612Z,24.74
2018-07-03T07:19:46.727Z,24.92
2018-07-03T07:20:54.778Z,25.07
2018-07-03T07:22:02.831Z,25.37
2018-07-03T07:23:10.974Z,25.31
2018-07-03T07:24:18.998Z,25.52
2018-07-03T07:25:27.062Z,25.83
2018-07-03T07:26:35.138Z,26.10
2018-07-03T07:27:43.223Z,26.11
2018-07-03T07:30:05.219Z,25.85
2018-07-03T07:31:13.303Z,25.74
2018-07-03T07:32:21.368Z,25.61
2018-07-03T07:33:29.452Z,25.18
2018-07-03T07:35:51.547Z,24.58
2018-07-03T07:36:59.520Z,24.37
2018-07-03T07:38:07.584Z,24.13
2018-07-03T07:39:19.986Z,23.79
2018-07-03T07:40:27.970Z,23.62
2018-07-03T07:41:36.055Z,23.25
2018-07-03T07:42:44.235Z,23.18
2018-07-03T07:43:52.226Z,22.89
2018-07-03T07:45:00.266Z,22.80
2018-07-03T07:46:08.338Z,22.52
2018-07-03T07:47:16.436Z,22.47
2018-07-03T07:48:24.486Z,22.43
2018-07-03T07:49:32.537Z,22.43
2018-07-03T07:50:40.636Z,22.43
2018-07-03T07:51:48.723Z,22.26
2018-07-03T07:52:56.768Z,22.19
2018-07-03T07:54:04.849Z,22.25
2018-07-03T07:55:12.935Z,22.38
2018-07-03T07:56:21.042Z,22.49
2018-07-03T07:57:29.065Z,22.59
2018-07-03T07:58:37.154Z,22.56
2018-07-03T07:59:45.234Z,22.65
2018-07-03T08:00:53.303Z,22.74
2018-07-03T08:02:01.370Z,22.78
2018-07-03T08:03:09.442Z,22.83
2018-07-03T08:04:17.521Z,22.81
2018-07-03T08:05:25.585Z,22.86
2018-07-03T08:06:33.661Z,22.95
2018-07-03T08:07:41.706Z,22.92
2018-07-03T08:08:49.811Z,22.84
2018-07-03T08:09:57.850Z,22.88
2018-07-03T08:11:05.940Z,22.95
2018-07-03T08:12:14.015Z,23.01
2018-07-03T08:13:22.109Z,22.86
2018-07-03T08:14:30.155Z,22.80
2018-07-03T08:15:38.249Z,22.86
2018-07-03T08:16:46.311Z,22.89
2018-07-03T08:17:54.370Z,22.86
2018-07-03T08:19:02.434Z,22.86
2018-07-03T08:20:10.558Z,22.88
2018-07-03T08:21:18.607Z,22.86
2018-07-03T08:22:26.681Z,22.88
2018-07-03T08:23:34.772Z,22.99
2018-07-03T08:24:42.826Z,23.04
2018-07-03T08:25:50.887Z,22.96
2018-07-03T08:26:58.969Z,23.06
2018-07-03T08:28:07.026Z,23.07
2018-07-03T08:29:15.143Z,23.06
2018-07-03T08:30:23.181Z,23.02
2018-07-03T08:31:31.271Z,23.08
2018-07-03T08:32:39.347Z,23.08
2018-07-03T08:33:47.402Z,22.99
2018-07-03T08:34:55.479Z,22.99
2018-07-03T08:36:03.585Z,22.95
2018-07-03T08:37:11.626Z,22.96
2018-07-03T08:38:19.704Z,22.96
2018-07-03T08:39:27.782Z,22.95
2018-07-03T08:40:35.833Z,23.02
2018-07-03T08:41:43.912Z,22.86
2018-07-03T08:42:52.002Z,22.86
2018-07-03T08:44:00.059Z,22.99
2018-07-03T08:45:08.127Z,22.98
2018-07-03T08:46:16.234Z,23.07
2018-07-03T08:47:24.307Z,23.14
2018-07-03T08:48:32.497Z,23.10
2018-07-03T08:49:40.439Z,23.07
2018-07-03T08:50:48.482Z,23.13
2018-07-03T08:51:56.585Z,23.16
2018-07-03T08:53:04.632Z,23.17
2018-07-03T08:54:12.701Z,23.18
2018-07-03T08:55:20.762Z,23.16
2018-07-03T08:56:28.862Z,23.17
2018-07-03T08:57:36.964Z,23.16
2018-07-03T08:58:44.996Z,23.08
2018-07-03T08:59:53.081Z,23.08
2018-07-03T09:01:01.150Z,23.01
2018-07-03T09:02:09.241Z,22.98
2018-07-03T09:03:17.320Z,22.88
2018-07-03T09:04:25.361Z,22.71
2018-07-03T09:05:33.458Z,22.58
2018-07-03T09:06:41.510Z,22.63
2018-07-03T09:07:49.605Z,22.62
2018-07-03T09:08:57.674Z,22.61
2018-07-03T09:10:05.734Z,22.59
2018-07-03T09:11:13.815Z,22.51
2018-07-03T09:12:21.841Z,22.49
2018-07-03T09:13:29.938Z,22.51
2018-07-03T09:14:38.006Z,22.55
2018-07-03T09:15:46.089Z,22.49
2018-07-03T09:16:54.163Z,22.56
2018-07-03T09:18:02.279Z,22.36
2018-07-03T09:19:10.300Z,22.49
2018-07-03T09:20:18.413Z,22.55
2018-07-03T09:21:26.453Z,22.55
2018-07-03T09:22:34.510Z,22.59
2018-07-03T09:23:42.670Z,22.55
2018-07-03T09:24:50.677Z,22.58
2018-07-03T09:25:58.729Z,22.58
2018-07-03T09:27:06.816Z,22.59
2018-07-03T09:28:14.875Z,22.65
2018-07-03T09:29:22.963Z,22.80
2018-07-03T09:30:31.053Z,22.81
2018-07-03T09:31:39.103Z,22.78
2018-07-03T09:32:47.157Z,22.80
2018-07-03T09:33:55.237Z,22.83
2018-07-03T09:35:03.319Z,22.93
2018-07-03T09:36:11.382Z,22.89
2018-07-03T09:37:19.444Z,22.89
2018-07-03T09:38:27.519Z,22.98
2018-07-03T09:39:35.588Z,22.96
2018-07-03T09:40:43.661Z,23.13
2018-07-03T09:41:51.709Z,23.29
2018-07-03T09:42:59.811Z,23.29
2018-07-03T09:44:07.887Z,23.49
2018-07-03T09:45:18.400Z,23.64
2018-07-03T09:46:24.047Z,23.81
2018-07-03T09:47:32.081Z,23.96
2018-07-03T09:48:40.192Z,24.07
2018-07-03T09:49:49.094Z,24.03
2018-07-03T09:50:56.304Z,24.09
2018-07-03T09:52:04.395Z,24.03
2018-07-03T09:53:12.444Z,24.10
2018-07-03T09:54:20.544Z,23.95
2018-07-03T09:55:28.618Z,23.84
2018-07-03T09:56:36.673Z,23.66
2018-07-03T09:57:44.794Z,23.62
2018-07-03T09:58:52.831Z,23.48
2018-07-03T10:00:00.886Z,23.20
2018-07-03T10:01:08.974Z,23.08
2018-07-03T10:02:17.035Z,22.89
2018-07-03T10:03:25.123Z,22.93
2018-07-03T10:04:33.197Z,22.88
2018-07-03T10:05:41.280Z,22.74
2018-07-03T10:06:49.347Z,22.62
2018-07-03T10:07:57.389Z,22.61
2018-07-03T10:09:05.480Z,22.63
2018-07-03T10:10:13.554Z,22.59
2018-07-03T10:11:21.600Z,22.61
2018-07-03T10:12:29.675Z,22.53
2018-07-03T10:13:37.759Z,22.40
2018-07-03T10:14:45.851Z,22.23
2018-07-03T10:15:53.905Z,22.36
2018-07-03T10:17:02.012Z,22.26
2018-07-03T10:18:10.053Z,22.31
2018-07-03T10:19:18.121Z,22.18
2018-07-03T10:20:26.191Z,22.21
2018-07-03T10:21:34.256Z,22.18
2018-07-03T10:22:42.312Z,22.10
2018-07-03T10:23:50.414Z,22.10
2018-07-03T10:24:58.469Z,22.14
2018-07-03T10:26:06.555Z,22.12
2018-07-03T10:27:14.627Z,22.12
2018-07-03T10:28:22.693Z,22.12
2018-07-03T10:29:30.813Z,22.14
2018-07-03T10:30:38.844Z,22.23
2018-07-03T10:31:46.918Z,22.30
2018-07-03T10:32:54.974Z,22.38
2018-07-03T10:34:03.071Z,22.56
2018-07-03T10:35:11.154Z,22.61
2018-07-03T10:36:19.189Z,22.78
2018-07-03T10:37:27.285Z,22.86
2018-07-03T10:38:35.358Z,23.07
2018-07-03T10:39:43.423Z,23.13
2018-07-03T10:40:51.490Z,23.26
2018-07-03T10:41:59.565Z,23.42
2018-07-03T10:43:07.631Z,23.62
2018-07-03T10:44:15.696Z,23.58
2018-07-03T10:45:23.786Z,23.58
2018-07-03T10:46:31.865Z,23.73
2018-07-03T10:47:39.906Z,23.76
2018-07-03T10:48:48.037Z,23.63
2018-07-03T10:49:56.060Z,23.62
2018-07-03T10:51:04.156Z,23.33
2018-07-03T10:52:12.177Z,23.34
2018-07-03T10:53:20.284Z,23.25
2018-07-03T10:54:28.361Z,23.11
2018-07-03T10:55:36.424Z,23.06
2018-07-03T10:56:44.517Z,22.89
2018-07-03T10:57:52.564Z,22.88
2018-07-03T10:59:00.624Z,22.70
2018-07-03T11:00:08.700Z,22.76
2018-07-03T11:01:16.787Z,22.61
2018-07-03T11:02:24.861Z,22.52
2018-07-03T11:03:32.932Z,22.43
2018-07-03T11:04:40.997Z,22.49
2018-07-03T11:05:49.071Z,22.44
2018-07-03T11:06:57.135Z,22.53
2018-07-03T11:08:05.223Z,22.52
2018-07-03T11:09:13.301Z,22.59
2018-07-03T11:10:21.374Z,22.61
2018-07-03T11:11:29.466Z,22.51
2018-07-03T11:12:37.518Z,22.58
2018-07-03T11:13:45.620Z,22.65
2018-07-03T11:14:53.665Z,22.55
2018-07-03T11:16:01.770Z,22.55
2018-07-03T11:17:09.812Z,22.49
2018-07-03T11:18:17.868Z,22.40
2018-07-03T11:19:25.938Z,22.49
2018-07-03T11:20:34.034Z,22.53
2018-07-03T11:21:42.095Z,22.63
2018-07-03T11:22:50.166Z,22.81
2018-07-03T11:23:58.242Z,22.98
2018-07-03T11:25:06.294Z,22.96
2018-07-03T11:26:14.370Z,23.13
2018-07-03T11:27:22.459Z,23.40
2018-07-03T11:28:30.546Z,23.54
2018-07-03T11:29:38.641Z,23.59
2018-07-03T11:30:46.658Z,23.86
2018-07-03T11:31:54.765Z,24.00
2018-07-03T11:33:02.815Z,23.99
2018-07-03T11:34:10.893Z,23.96
2018-07-03T11:35:19.000Z,24.10
2018-07-03T11:36:27.040Z,24.22
2018-07-03T11:37:35.104Z,24.18
2018-07-03T11:38:43.202Z,24.13
2018-07-03T11:39:51.263Z,24.14
2018-07-03T11:40:59.329Z,24.26
2018-07-03T11:42:07.409Z,24.22
2018-07-03T11:43:15.533Z,24.48
2018-07-03T11:44:23.535Z,24.62
2018-07-03T11:45:31.607Z,24.59
2018-07-03T11:46:39.765Z,24.63
2018-07-03T11:47:47.761Z,24.66
2018-07-03T11:48:55.861Z,24.81
2018-07-03T11:50:03.988Z,24.93
2018-07-03T11:51:11.966Z,24.92
2018-07-03T11:52:20.105Z,24.85
2018-07-03T11:53:28.180Z,24.97
2018-07-03T11:54:36.220Z,24.94
2018-07-03T11:55:44.295Z,24.97
2018-07-03T11:56:52.341Z,24.77
2018-07-03T11:58:00.433Z,24.74
2018-07-03T11:59:08.526Z,24.92
2018-07-03T12:00:16.577Z,24.86
2018-07-03T12:01:24.697Z,24.92
2018-07-03T12:02:32.734Z,24.74
2018-07-03T12:03:40.806Z,24.63
2018-07-03T12:04:48.889Z,24.55
2018-07-03T12:05:56.942Z,24.71
2018-07-03T12:07:05.050Z,24.77
2018-07-03T12:08:13.104Z,24.69
2018-07-03T12:09:21.141Z,24.78
2018-07-03T12:10:29.244Z,24.84
2018-07-03T12:11:37.298Z,24.88
2018-07-03T12:12:45.391Z,24.93
2018-07-03T12:13:53.463Z,25.06
2018-07-03T12:15:01.528Z,25.14
2018-07-03T12:16:09.635Z,25.30
2018-07-03T12:17:17.682Z,25.30
2018-07-03T12:18:25.770Z,25.56
2018-07-03T12:19:33.915Z,25.52
2018-07-03T12:20:41.902Z,25.43
2018-07-03T12:21:49.989Z,25.51
2018-07-03T12:22:58.056Z,25.46
2018-07-03T12:24:06.142Z,25.44
2018-07-03T12:25:14.204Z,25.49
2018-07-03T12:26:22.268Z,25.58
2018-07-03T12:27:30.351Z,25.56
2018-07-03T12:28:38.423Z,25.73
2018-07-03T12:29:46.501Z,25.56
2018-07-03T12:30:54.584Z,25.33
2018-07-03T12:32:02.616Z,25.36
2018-07-03T12:33:10.716Z,25.26
2018-07-03T12:34:18.760Z,25.36
2018-07-03T12:35:26.856Z,25.44
2018-07-03T12:36:34.943Z,25.58
2018-07-03T12:37:43.019Z,25.52
2018-07-03T12:38:51.088Z,25.63
2018-07-03T12:39:59.146Z,25.70
2018-07-03T12:41:07.232Z,25.81
2018-07-03T12:42:15.324Z,25.85
2018-07-03T12:43:23.359Z,25.77
2018-07-03T12:44:31.469Z,25.77
2018-07-03T12:45:39.513Z,25.68
2018-07-03T12:46:48.278Z,25.52
2018-07-03T12:47:55.702Z,25.37
2018-07-03T12:49:03.735Z,25.31
2018-07-03T12:50:11.817Z,25.19
2018-07-03T12:51:19.880Z,25.37
2018-07-03T12:52:27.968Z,25.34
2018-07-03T12:53:36.028Z,25.43
2018-07-03T12:54:44.122Z,25.43
2018-07-03T12:55:52.242Z,25.48
2018-07-03T12:57:00.264Z,25.44
2018-07-03T12:58:08.329Z,25.39
2018-07-03T12:59:16.407Z,25.36
2018-07-03T13:00:24.481Z,25.44
2018-07-03T13:01:32.539Z,25.58
2018-07-03T13:02:40.626Z,25.61
2018-07-03T13:03:48.686Z,25.74
2018-07-03T13:04:56.796Z,25.80
2018-07-03T13:06:04.841Z,25.85
2018-07-03T13:07:12.930Z,25.81
2018-07-03T13:08:20.980Z,25.80
2018-07-03T13:09:29.039Z,25.74
2018-07-03T13:10:37.119Z,25.83
2018-07-03T13:11:45.204Z,25.80
2018-07-03T13:12:53.267Z,25.77
2018-07-03T13:14:01.348Z,25.73
2018-07-03T13:15:09.667Z,25.68
2018-07-03T13:16:17.499Z,25.74
2018-07-03T13:17:25.563Z,25.74
2018-07-03T13:18:33.652Z,25.85
2018-07-03T13:19:41.702Z,25.86
2018-07-03T13:20:49.797Z,26.01
2018-07-03T13:21:57.869Z,25.98
2018-07-03T13:23:05.950Z,25.99
2018-07-03T13:24:14.025Z,25.99
2018-07-03T13:25:22.098Z,26.04
2018-07-03T13:26:30.155Z,25.92
2018-07-03T13:27:38.221Z,25.89
2018-07-03T13:28:46.317Z,25.89
2018-07-03T13:29:54.437Z,25.86
2018-07-03T13:31:02.432Z,25.77
2018-07-03T13:32:10.535Z,25.86
2018-07-03T13:33:18.601Z,25.58
2018-07-03T13:34:26.663Z,25.56
2018-07-03T13:35:34.743Z,25.58
2018-07-03T13:36:42.790Z,25.58
2018-07-03T13:37:50.890Z,25.49
2018-07-03T13:38:58.945Z,25.46
2018-07-03T13:40:07.013Z,25.55
2018-07-03T13:41:15.128Z,25.63
2018-07-03T13:42:23.174Z,25.86
2018-07-03T13:43:31.276Z,25.86
2018-07-03T13:44:39.314Z,25.85
2018-07-03T13:45:47.409Z,25.77
2018-07-03T13:46:55.485Z,25.74
2018-07-03T13:48:03.532Z,25.78
2018-07-03T13:49:11.615Z,25.81
2018-07-03T13:50:19.694Z,25.76
2018-07-03T13:51:27.762Z,25.67
2018-07-03T13:52:35.830Z,25.67
2018-07-03T13:53:43.916Z,25.85
2018-07-03T13:54:51.991Z,25.99
2018-07-03T13:56:00.061Z,26.03
2018-07-03T13:57:08.116Z,25.98
2018-07-03T13:58:16.190Z,26.15
2018-07-03T13:59:24.282Z,26.16
2018-07-03T14:00:32.320Z,26.31
2018-07-03T14:01:40.408Z,26.45
2018-07-03T14:02:48.485Z,26.56
2018-07-03T14:03:56.555Z,26.56
2018-07-03T14:05:04.625Z,26.44
2018-07-03T14:06:12.706Z,26.36
2018-07-03T14:07:20.778Z,26.15
2018-07-03T14:08:28.854Z,26.04
2018-07-03T14:09:36.932Z,25.89
2018-07-03T14:10:45.032Z,25.85
2018-07-03T14:11:53.058Z,25.85
2018-07-03T14:13:01.146Z,25.67
2018-07-03T14:14:09.214Z,25.58
2018-07-03T14:15:17.303Z,25.59
2018-07-03T14:16:25.357Z,25.78
2018-07-03T14:17:33.433Z,25.86
2018-07-03T14:18:41.538Z,25.83
2018-07-03T14:19:49.580Z,25.99
2018-07-03T14:20:57.660Z,25.88
2018-07-03T14:22:05.824Z,25.85
2018-07-03T14:23:13.796Z,25.83
2018-07-03T14:24:21.859Z,26.03
2018-07-03T14:25:29.971Z,25.86
2018-07-03T14:26:38.004Z,25.91
2018-07-03T14:27:46.103Z,25.85
2018-07-03T14:28:54.174Z,25.83
2018-07-03T14:30:02.248Z,25.95
2018-07-03T14:31:10.352Z,25.95
2018-07-03T14:32:18.392Z,25.81
2018-07-03T14:33:26.441Z,25.77
2018-07-03T14:34:34.524Z,25.85
2018-07-03T14:35:42.602Z,25.88
2018-07-03T14:36:50.677Z,25.93
2018-07-03T14:37:58.772Z,25.93
2018-07-03T14:39:06.830Z,25.88
2018-07-03T14:40:14.908Z,25.89